Time;durP1;ratioP1;P1;durP2;ratioP2;P2;SDS_P1;SDS_P2;PMS_P1;PMS_P2;Temp;Humidity;BMP_temperature;BMP_pressure;BME280_temperature;BME280_humidity;BME280_pressure;Samples;Min_cycle;Max_cycle;Signal;HPM_P1;HPM_P2
2021/07/16 00:02:11;;;;;;;21.50;16.73;;;18.00;99.90;;;;;;5051345;28;20166;-70
2021/07/16 00:04:36;;;;;;;16.23;14.20;;;18.00;99.90;;;;;;5032878;28;20285;-70
2021/07/16 00:07:02;;;;;;;22.33;15.37;;;18.00;99.90;;;;;;5052634;28;20434;-70
2021/07/16 00:09:28;;;;;;;21.33;15.40;;;18.00;99.90;;;;;;5052524;28;20585;-70
2021/07/16 00:11:53;;;;;;;19.40;15.53;;;18.00;99.90;;;;;;5050569;28;20160;-70
2021/07/16 00:14:19;;;;;;;21.17;15.37;;;17.90;99.90;;;;;;5050549;28;20185;-70
2021/07/16 00:16:45;;;;;;;18.00;15.83;;;17.90;99.90;;;;;;5052417;28;20677;-70
2021/07/16 00:19:10;;;;;;;17.43;14.80;;;17.90;99.90;;;;;;5052306;28;20154;-70
2021/07/16 00:21:36;;;;;;;18.37;13.60;;;17.90;99.90;;;;;;5052600;28;20166;-70
2021/07/16 00:24:02;;;;;;;22.27;13.97;;;17.90;99.90;;;;;;5036109;28;20212;-70
2021/07/16 00:26:29;;;;;;;23.77;15.83;;;17.90;99.90;;;;;;5032256;28;20160;-70
2021/07/16 00:28:54;;;;;;;25.10;15.80;;;17.90;99.90;;;;;;5033380;28;20200;-70
2021/07/16 00:31:20;;;;;;;19.00;13.90;;;17.90;99.90;;;;;;5052285;28;20479;-70
2021/07/16 00:33:45;;;;;;;17.87;13.27;;;17.90;99.90;;;;;;5038599;28;20251;-70
2021/07/16 00:36:11;;;;;;;26.47;14.60;;;17.90;99.90;;;;;;5032662;28;20548;-70
2021/07/16 00:38:37;;;;;;;18.13;14.03;;;17.90;99.90;;;;;;5032252;28;20570;-70
2021/07/16 00:41:04;;;;;;;20.80;15.50;;;17.90;99.90;;;;;;5032285;28;20161;-70
2021/07/16 00:43:29;;;;;;;16.67;13.73;;;17.90;99.90;;;;;;5032064;28;20425;-70
2021/07/16 00:45:55;;;;;;;26.33;13.60;;;17.90;99.90;;;;;;5032714;28;20751;-70
2021/07/16 00:48:20;;;;;;;16.80;13.37;;;17.90;99.90;;;;;;5032279;28;20170;-70
2021/07/16 00:50:48;;;;;;;21.20;13.30;;;17.80;99.90;;;;;;5032309;28;20155;-70
2021/07/16 00:53:17;;;;;;;21.40;14.67;;;17.80;99.90;;;;;;5032276;28;20183;-70
2021/07/16 00:55:44;;;;;;;23.13;13.03;;;17.80;99.90;;;;;;5032127;28;20472;-70
2021/07/16 00:58:10;;;;;;;18.40;13.30;;;17.80;99.90;;;;;;5032016;28;20392;-70
2021/07/16 01:00:36;;;;;;;17.47;13.53;;;17.80;99.90;;;;;;5031949;28;20407;-70
2021/07/16 01:03:02;;;;;;;14.67;12.70;;;17.80;99.90;;;;;;5032480;28;20445;-70
2021/07/16 01:05:27;;;;;;;20.47;12.80;;;17.80;99.90;;;;;;5038950;28;20936;-70
2021/07/16 01:07:53;;;;;;;13.40;11.97;;;17.80;99.90;;;;;;5051992;28;20211;-70
2021/07/16 01:10:22;;;;;;;19.23;11.93;;;17.70;99.90;;;;;;5052406;28;20152;-70
2021/07/16 01:12:52;;;;;;;14.60;12.87;;;17.70;99.90;;;;;;5039779;28;20434;-70
2021/07/16 01:15:23;;;;;;;16.63;13.83;;;17.70;99.90;;;;;;5032175;28;20392;-70
2021/07/16 01:17:49;;;;;;;15.50;11.73;;;17.70;99.90;;;;;;5032036;28;20396;-70
2021/07/16 01:20:18;;;;;;;15.57;11.70;;;17.60;99.90;;;;;;5036315;28;20421;-70
2021/07/16 01:22:46;;;;;;;14.10;11.50;;;17.60;99.90;;;;;;5040505;28;20502;-70
2021/07/16 01:25:15;;;;;;;20.60;12.57;;;17.60;99.90;;;;;;5031484;28;20964;-70
2021/07/16 01:27:42;;;;;;;19.73;12.50;;;17.60;99.90;;;;;;5031835;28;20384;-70
2021/07/16 01:30:10;;;;;;;16.53;12.30;;;17.50;99.90;;;;;;5043830;28;20420;-70
2021/07/16 01:32:37;;;;;;;19.47;12.47;;;17.50;99.90;;;;;;5044636;28;20447;-70
2021/07/16 01:35:04;;;;;;;17.17;12.10;;;17.50;99.90;;;;;;5035560;28;20445;-70
2021/07/16 01:37:31;;;;;;;16.07;11.70;;;17.50;99.90;;;;;;5041501;28;20411;-70
2021/07/16 01:39:58;;;;;;;17.40;10.80;;;17.50;99.90;;;;;;5055341;28;20423;-70
2021/07/16 01:42:33;;;;;;;19.33;10.53;;;17.50;99.90;;;;;;5047541;28;20420;-70
2021/07/16 01:45:00;;;;;;;16.17;10.70;;;17.50;99.90;;;;;;5035102;28;20537;-70
2021/07/16 01:47:25;;;;;;;13.60;10.73;;;17.50;99.90;;;;;;5035277;28;20403;-70
2021/07/16 01:49:51;;;;;;;11.40;9.70;;;17.50;99.90;;;;;;5035181;28;20387;-70
2021/07/16 01:52:17;;;;;;;12.07;10.07;;;17.50;99.90;;;;;;5035457;28;20700;-70
2021/07/16 01:54:42;;;;;;;13.47;11.37;;;17.50;99.90;;;;;;5042864;28;20205;-70
2021/07/16 01:57:08;;;;;;;15.23;9.83;;;17.50;99.90;;;;;;5054739;28;20535;-70
2021/07/16 01:59:34;;;;;;;16.63;11.47;;;17.50;99.90;;;;;;5054844;28;20203;-70
2021/07/16 02:02:00;;;;;;;13.80;10.30;;;17.40;99.90;;;;;;5051014;28;20201;-70
2021/07/16 02:04:25;;;;;;;16.23;11.57;;;17.40;99.90;;;;;;5034765;28;20490;-70
2021/07/16 02:06:51;;;;;;;12.70;9.90;;;17.40;99.90;;;;;;5053070;28;20186;-70
2021/07/16 02:09:16;;;;;;;18.03;11.17;;;17.40;99.90;;;;;;5054653;28;20164;-70
2021/07/16 02:11:42;;;;;;;13.43;11.00;;;17.40;99.90;;;;;;5046997;28;20172;-70
2021/07/16 02:14:08;;;;;;;13.13;10.13;;;17.40;99.90;;;;;;5055035;28;20159;-70
2021/07/16 02:16:33;;;;;;;18.80;11.03;;;17.40;99.90;;;;;;5054672;28;20175;-70
2021/07/16 02:18:59;;;;;;;17.47;10.20;;;17.40;99.90;;;;;;5054332;28;20537;-70
2021/07/16 02:21:24;;;;;;;16.30;10.43;;;17.40;99.90;;;;;;5037351;28;20180;-70
2021/07/16 02:23:50;;;;;;;13.83;9.07;;;17.30;99.90;;;;;;5034343;28;20208;-70
2021/07/16 02:26:16;;;;;;;15.67;9.90;;;17.40;99.90;;;;;;5034316;28;20505;-70
2021/07/16 02:28:42;;;;;;;14.70;10.50;;;17.30;99.90;;;;;;5034849;28;20629;-70
2021/07/16 02:31:10;;;;;;;13.80;10.53;;;17.30;99.90;;;;;;5048403;28;20919;-70
2021/07/16 02:33:36;;;;;;;13.77;10.60;;;17.30;99.90;;;;;;5054213;28;20399;-70
2021/07/16 02:36:04;;;;;;;10.97;9.80;;;17.30;99.90;;;;;;5054152;28;20486;-70
2021/07/16 02:38:29;;;;;;;16.73;8.87;;;17.30;99.90;;;;;;5054551;28;20395;-72
2021/07/16 02:40:56;;;;;;;13.53;10.07;;;17.30;99.90;;;;;;5041357;28;20416;-72
2021/07/16 02:43:22;;;;;;;13.70;10.10;;;17.30;99.90;;;;;;5034169;28;20307;-72
2021/07/16 02:45:49;;;;;;;11.23;8.00;;;17.30;99.90;;;;;;5042603;28;20553;-72
2021/07/16 02:48:15;;;;;;;17.77;9.30;;;17.30;99.90;;;;;;5054134;28;20753;-72
2021/07/16 02:50:42;;;;;;;16.63;9.70;;;17.20;99.90;;;;;;5043305;28;20508;-72
2021/07/16 02:53:09;;;;;;;11.37;10.27;;;17.20;99.90;;;;;;5033926;28;20393;-72
2021/07/16 02:55:36;;;;;;;13.90;8.60;;;17.30;99.90;;;;;;5033829;28;20487;-72
2021/07/16 02:58:02;;;;;;;11.37;9.10;;;17.30;99.90;;;;;;5034848;28;20482;-70
2021/07/16 03:00:30;;;;;;;11.93;7.63;;;17.20;99.90;;;;;;5033644;28;20966;-70
2021/07/16 03:02:57;;;;;;;12.43;9.27;;;17.20;99.90;;;;;;5034647;28;20790;-70
2021/07/16 03:05:27;;;;;;;16.03;9.07;;;17.30;99.90;;;;;;5039747;28;20458;-70
2021/07/16 03:07:53;;;;;;;11.23;8.13;;;17.30;99.90;;;;;;5053612;28;20391;-70
2021/07/16 03:10:22;;;;;;;14.87;8.43;;;17.30;99.90;;;;;;5046381;28;20496;-70
2021/07/16 03:12:50;;;;;;;16.73;8.87;;;17.30;99.90;;;;;;5033573;28;20395;-70
2021/07/16 03:15:18;;;;;;;14.53;8.37;;;17.30;99.90;;;;;;5033605;28;20434;-70
2021/07/16 03:17:45;;;;;;;11.20;8.57;;;17.30;99.90;;;;;;5033529;28;20391;-70
2021/07/16 03:20:14;;;;;;;15.77;8.47;;;17.30;99.90;;;;;;5039678;28;20435;-70
2021/07/16 03:22:40;;;;;;;9.70;8.77;;;17.30;99.90;;;;;;5033369;28;20401;-70
2021/07/16 03:25:08;;;;;;;15.80;8.70;;;17.30;99.90;;;;;;5033246;28;20990;-70
2021/07/16 03:27:35;;;;;;;12.97;8.03;;;17.30;99.90;;;;;;5033220;28;20261;-70
2021/07/16 03:30:00;;;;;;;15.23;8.67;;;17.30;99.90;;;;;;5036568;28;20422;-70
2021/07/16 03:32:26;;;;;;;15.03;8.90;;;17.30;99.90;;;;;;5053312;28;20400;-70
2021/07/16 03:34:51;;;;;;;12.90;8.40;;;17.30;99.90;;;;;;5053038;28;20660;-70
2021/07/16 03:37:17;;;;;;;11.87;9.90;;;17.30;99.90;;;;;;5039765;28;20204;-70
2021/07/16 03:39:43;;;;;;;9.13;8.20;;;17.30;99.90;;;;;;5033004;28;20244;-70
2021/07/16 03:42:09;;;;;;;14.30;9.27;;;17.30;99.90;;;;;;5033098;28;20157;-70
2021/07/16 03:44:34;;;;;;;11.50;8.80;;;17.30;99.90;;;;;;5039411;28;20461;-70
2021/07/16 03:47:00;;;;;;;14.40;7.87;;;17.30;99.90;;;;;;5041151;28;20260;-70
2021/07/16 03:49:26;;;;;;;14.07;9.37;;;17.30;99.90;;;;;;5034444;28;20556;-70
2021/07/16 03:51:54;;;;;;;10.90;9.33;;;17.30;99.90;;;;;;5034092;28;20177;-70
2021/07/16 03:54:20;;;;;;;14.63;8.30;;;17.30;99.90;;;;;;5044061;28;20418;-70
2021/07/16 03:56:45;;;;;;;16.17;9.40;;;17.30;99.90;;;;;;5038889;28;20435;-70
2021/07/16 03:59:11;;;;;;;13.57;9.83;;;17.30;99.90;;;;;;5046009;28;20203;-70
2021/07/16 04:01:37;;;;;;;14.23;10.20;;;17.30;99.90;;;;;;5046114;28;20195;-70
2021/07/16 04:04:03;;;;;;;12.23;10.50;;;17.20;99.90;;;;;;5043680;28;20235;-70
2021/07/16 04:06:31;;;;;;;16.20;10.83;;;17.20;99.90;;;;;;5046427;28;20515;-70
2021/07/16 04:11:42;;;;;;;11.40;9.83;;;17.20;99.90;;;;;;5047341;28;20411;-70
2021/07/16 04:14:07;;;;;;;11.87;9.73;;;17.10;99.90;;;;;;5052886;28;20394;-70
2021/07/16 04:16:33;;;;;;;12.67;11.43;;;17.10;99.90;;;;;;5052378;28;20606;-70
2021/07/16 04:18:58;;;;;;;13.90;11.43;;;17.10;99.90;;;;;;5032807;28;20180;-70
2021/07/16 04:21:24;;;;;;;12.70;10.77;;;17.10;99.90;;;;;;5035554;28;20669;-70
2021/07/16 04:23:49;;;;;;;12.30;10.60;;;17.10;99.90;;;;;;5052190;28;20596;-70
2021/07/16 04:26:15;;;;;;;13.70;11.47;;;17.10;99.90;;;;;;5045167;28;20188;-69
2021/07/16 04:28:40;;;;;;;12.70;11.13;;;17.10;99.90;;;;;;5043923;28;20176;-70
2021/07/16 04:31:06;;;;;;;14.90;10.50;;;17.10;99.90;;;;;;5034219;28;20179;-70
2021/07/16 04:33:32;;;;;;;11.23;9.97;;;17.10;99.90;;;;;;5036103;28;20170;-69
2021/07/16 04:35:58;;;;;;;14.73;11.67;;;17.10;99.90;;;;;;5039772;28;20176;-70
2021/07/16 04:38:23;;;;;;;14.20;10.53;;;17.10;99.90;;;;;;5039002;28;20935;-70
2021/07/16 04:40:49;;;;;;;13.03;11.70;;;17.10;99.90;;;;;;5035805;28;20188;-69
2021/07/16 04:43:14;;;;;;;17.33;10.93;;;17.10;99.90;;;;;;5036050;28;20189;-70
2021/07/16 04:45:40;;;;;;;14.27;12.17;;;17.10;99.90;;;;;;5032500;28;20204;-70
2021/07/16 04:48:07;;;;;;;14.83;11.27;;;17.10;99.90;;;;;;5041068;28;20172;-70
2021/07/16 04:50:33;;;;;;;16.17;12.40;;;17.10;99.90;;;;;;5051680;28;20418;-70
2021/07/16 04:52:58;;;;;;;18.77;11.40;;;17.10;99.90;;;;;;5046261;28;20420;-69
2021/07/16 04:55:24;;;;;;;16.70;12.23;;;17.20;99.90;;;;;;5032077;28;20176;-69
2021/07/16 04:57:50;;;;;;;16.30;12.30;;;17.20;99.90;;;;;;5032496;28;20252;-69
2021/07/16 05:00:17;;;;;;;16.53;12.43;;;17.20;99.90;;;;;;5031989;28;20232;-70
2021/07/16 05:02:43;;;;;;;19.93;12.00;;;17.20;99.90;;;;;;5043573;28;20187;-70
2021/07/16 05:05:09;;;;;;;18.00;13.10;;;17.20;99.90;;;;;;5047802;28;20451;-70
2021/07/16 05:07:35;;;;;;;14.70;13.10;;;17.20;99.90;;;;;;5045862;28;20172;-69
2021/07/16 05:10:02;;;;;;;17.43;12.80;;;17.20;99.90;;;;;;5056014;28;20391;-69
2021/07/16 05:12:28;;;;;;;13.37;11.97;;;17.20;99.90;;;;;;5056344;28;20202;-69
2021/07/16 05:14:54;;;;;;;17.63;11.73;;;17.20;99.90;;;;;;5056067;28;20835;-69
2021/07/16 05:17:19;;;;;;;17.13;13.00;;;17.20;99.90;;;;;;5048559;28;20189;-69
2021/07/16 05:19:45;;;;;;;16.40;11.67;;;17.20;99.90;;;;;;5052228;28;20457;-69
2021/07/16 05:22:10;;;;;;;14.70;13.07;;;17.20;99.90;;;;;;5055875;28;20585;-70
2021/07/16 05:24:37;;;;;;;18.10;12.67;;;17.20;99.90;;;;;;5055474;28;20231;-69
2021/07/16 05:27:04;;;;;;;17.80;11.57;;;17.20;99.90;;;;;;5050851;28;20174;-70
2021/07/16 05:29:30;;;;;;;22.37;11.40;;;17.20;99.90;;;;;;5035622;28;20787;-69
2021/07/16 05:31:55;;;;;;;17.37;10.60;;;17.20;99.90;;;;;;5035537;28;20399;-69
2021/07/16 05:34:21;;;;;;;12.53;11.23;;;17.20;99.90;;;;;;5035624;28;20162;-69
2021/07/16 05:36:46;;;;;;;17.17;11.30;;;17.20;99.90;;;;;;5036181;28;20225;-69
2021/07/16 05:39:12;;;;;;;15.37;9.37;;;17.20;99.90;;;;;;5042454;28;20180;-70
2021/07/16 05:41:38;;;;;;;11.47;10.37;;;17.20;99.90;;;;;;5038593;28;20268;-70
2021/07/16 05:44:03;;;;;;;14.77;9.73;;;17.30;99.90;;;;;;5055452;28;20192;-69
2021/07/16 05:46:30;;;;;;;12.80;9.43;;;17.30;99.90;;;;;;5055136;28;20160;-69
2021/07/16 05:48:56;;;;;;;11.27;10.10;;;17.30;99.90;;;;;;5035487;28;20175;-69
2021/07/16 05:51:22;;;;;;;11.07;9.03;;;17.30;99.90;;;;;;5035273;28;20392;-69
2021/07/16 05:53:48;;;;;;;11.93;8.60;;;17.30;99.90;;;;;;5036059;28;20496;-69
2021/07/16 05:56:13;;;;;;;10.00;8.40;;;17.40;99.90;;;;;;5035413;28;20158;-69
2021/07/16 05:58:39;;;;;;;9.57;8.53;;;17.40;99.90;;;;;;5051805;28;20196;-69
2021/07/16 06:01:04;;;;;;;8.67;7.83;;;17.40;99.90;;;;;;5049658;28;20170;-69
2021/07/16 06:03:30;;;;;;;14.07;9.10;;;17.40;99.90;;;;;;5044405;28;20228;-69
2021/07/16 06:05:55;;;;;;;11.90;7.73;;;17.50;99.90;;;;;;5050938;28;20257;-70
2021/07/16 06:08:21;;;;;;;8.80;7.03;;;17.50;99.90;;;;;;5038200;28;20553;-70
2021/07/16 06:10:46;;;;;;;9.90;8.47;;;17.60;99.90;;;;;;5034310;28;20267;-70
2021/07/16 06:13:12;;;;;;;8.00;7.30;;;17.60;99.90;;;;;;5032936;28;20520;-70
2021/07/16 06:15:37;;;;;;;10.97;8.13;;;17.70;99.90;;;;;;5039475;28;20262;-70
2021/07/16 06:18:03;;;;;;;7.67;6.97;;;17.80;99.90;;;;;;5044013;28;20537;-70
2021/07/16 06:20:29;;;;;;;8.97;7.07;;;17.90;99.90;;;;;;5040355;28;20184;-70
2021/07/16 06:22:55;;;;;;;8.93;8.03;;;17.90;99.90;;;;;;5040665;28;20211;-69
2021/07/16 06:25:20;;;;;;;9.33;6.97;;;17.90;99.90;;;;;;5045800;28;20450;-70
2021/07/16 06:27:47;;;;;;;8.13;6.90;;;17.90;99.90;;;;;;5043069;28;20178;-70
2021/07/16 06:30:14;;;;;;;9.93;7.83;;;17.80;99.90;;;;;;5033473;28;20174;-70
2021/07/16 06:32:39;;;;;;;9.87;7.10;;;17.80;99.90;;;;;;5033788;28;20790;-70
2021/07/16 06:35:07;;;;;;;11.60;10.40;;;17.80;99.90;;;;;;5034335;28;20391;-70
2021/07/16 06:37:32;;;;;;;14.97;12.37;;;17.70;99.90;;;;;;5035512;28;20188;-70
2021/07/16 06:39:58;;;;;;;14.60;13.00;;;17.70;99.90;;;;;;5054672;28;20407;-70
2021/07/16 06:42:26;;;;;;;17.83;15.20;;;17.60;99.90;;;;;;5054301;28;20166;-70
2021/07/16 06:44:52;;;;;;;15.90;13.60;;;17.60;99.90;;;;;;5052876;28;20659;-70
2021/07/16 06:47:17;;;;;;;21.57;17.47;;;17.50;99.90;;;;;;5042245;28;20515;-70
2021/07/16 06:49:44;;;;;;;22.37;18.77;;;17.50;99.90;;;;;;5037556;28;20211;-70
2021/07/16 06:52:10;;;;;;;25.47;18.80;;;17.50;99.90;;;;;;5054416;28;20177;-70
2021/07/16 06:54:38;;;;;;;19.53;17.37;;;17.50;99.90;;;;;;5054535;28;20396;-70
2021/07/16 06:57:04;;;;;;;18.30;15.70;;;17.50;99.90;;;;;;5051119;28;20211;-70
2021/07/16 06:59:29;;;;;;;18.20;14.83;;;17.50;99.90;;;;;;5033816;28;20419;-70
2021/07/16 07:01:55;;;;;;;19.20;15.90;;;17.50;99.90;;;;;;5037962;28;20931;-70
2021/07/16 07:04:20;;;;;;;17.67;15.33;;;17.50;99.90;;;;;;5034008;28;20184;-70
2021/07/16 07:06:46;;;;;;;19.00;16.07;;;17.40;99.90;;;;;;5037155;28;20189;-70
2021/07/16 07:09:12;;;;;;;20.30;16.47;;;17.50;99.90;;;;;;5038335;28;20173;-70
2021/07/16 07:11:38;;;;;;;16.20;14.50;;;17.40;99.90;;;;;;5035676;28;20688;-70
2021/07/16 07:14:04;;;;;;;21.40;18.27;;;17.40;99.90;;;;;;5033260;28;20164;-70
2021/07/16 07:16:30;;;;;;;20.43;17.33;;;17.40;99.90;;;;;;5033256;28;20169;-70
2021/07/16 07:18:55;;;;;;;21.40;18.40;;;17.40;99.90;;;;;;5034066;28;20427;-70
2021/07/16 07:21:21;;;;;;;20.80;17.47;;;17.30;99.90;;;;;;5033659;28;20273;-70
2021/07/16 07:23:46;;;;;;;20.70;18.50;;;17.30;99.90;;;;;;5033253;28;20231;-70
2021/07/16 07:26:12;;;;;;;22.57;17.70;;;17.30;99.90;;;;;;5033284;28;20244;-70
2021/07/16 07:28:37;;;;;;;21.30;16.97;;;17.30;99.90;;;;;;5032973;28;20160;-70
2021/07/16 07:31:03;;;;;;;21.87;19.33;;;17.30;99.90;;;;;;5034087;28;20177;-74
2021/07/16 07:33:29;;;;;;;21.10;17.63;;;17.30;99.90;;;;;;5041244;28;20183;-71
2021/07/16 07:35:56;;;;;;;19.73;17.80;;;17.30;99.90;;;;;;5043918;28;20253;-70
2021/07/16 07:38:22;;;;;;;25.63;20.33;;;17.30;99.90;;;;;;5040460;28;20177;-70
2021/07/16 07:40:48;;;;;;;23.90;18.70;;;17.30;99.90;;;;;;5036876;28;20499;-71
2021/07/16 07:43:14;;;;;;;24.53;19.30;;;17.20;99.90;;;;;;5033795;28;20475;-68
2021/07/16 07:45:39;;;;;;;24.97;18.73;;;17.20;99.90;;;;;;5041986;28;20459;-70
2021/07/16 07:48:05;;;;;;;25.77;20.60;;;17.20;99.90;;;;;;5038338;28;20202;-69
2021/07/16 07:50:31;;;;;;;23.53;19.90;;;17.20;99.90;;;;;;5042835;28;20200;-69
2021/07/16 07:52:56;;;;;;;23.53;20.43;;;17.20;99.90;;;;;;5033854;28;20177;-70
2021/07/16 07:55:24;;;;;;;21.50;19.23;;;17.20;99.90;;;;;;5037652;28;20272;-69
2021/07/16 07:57:52;;;;;;;30.40;20.93;;;17.20;99.90;;;;;;5044509;28;20188;-69
2021/07/16 08:00:20;;;;;;;21.33;18.87;;;17.20;99.90;;;;;;5041717;28;20452;-69
2021/07/16 08:02:45;;;;;;;26.20;20.60;;;17.30;99.90;;;;;;5039129;28;20427;-69
2021/07/16 08:05:12;;;;;;;22.80;19.70;;;17.30;99.90;;;;;;5038907;28;20492;-69
2021/07/16 08:07:38;;;;;;;24.00;18.93;;;17.30;99.90;;;;;;5040586;28;20168;-69
2021/07/16 08:10:06;;;;;;;20.57;18.37;;;17.30;99.90;;;;;;5043996;28;20418;-69
2021/07/16 08:12:31;;;;;;;21.70;16.80;;;17.30;99.90;;;;;;5045479;28;20419;-69
2021/07/16 08:14:57;;;;;;;20.93;18.73;;;17.30;99.90;;;;;;5039804;28;20520;-69
2021/07/16 08:17:23;;;;;;;18.50;16.10;;;17.40;99.90;;;;;;5042716;28;20238;-69
2021/07/16 08:19:48;;;;;;;20.00;17.93;;;17.40;99.90;;;;;;5038705;28;20255;-69
2021/07/16 08:22:14;;;;;;;18.67;16.73;;;17.50;99.90;;;;;;5041137;28;20758;-69
2021/07/16 08:24:39;;;;;;;22.27;18.60;;;17.50;99.90;;;;;;5046037;28;20205;-69
2021/07/16 08:27:05;;;;;;;22.33;17.83;;;17.50;99.90;;;;;;5031865;28;20639;-69
2021/07/16 08:29:30;;;;;;;22.40;17.60;;;17.60;99.90;;;;;;5030615;28;20538;-69
2021/07/16 08:31:56;;;;;;;26.67;16.37;;;17.70;99.90;;;;;;5033146;28;20153;-69
2021/07/16 08:34:22;;;;;;;24.53;18.10;;;17.70;99.90;;;;;;5041606;28;20229;-69
2021/07/16 08:36:47;;;;;;;21.77;16.80;;;17.80;99.90;;;;;;5041177;28;20178;-69
2021/07/16 08:39:13;;;;;;;23.60;18.57;;;17.80;99.90;;;;;;5046200;28;20194;-69
2021/07/16 08:41:38;;;;;;;26.90;19.13;;;17.80;99.90;;;;;;5047396;28;20188;-69
2021/07/16 08:44:04;;;;;;;21.80;19.50;;;17.80;99.90;;;;;;5042341;28;20208;-69
2021/07/16 08:46:31;;;;;;;22.47;18.50;;;17.80;99.90;;;;;;5046116;28;20184;-69
2021/07/16 08:48:58;;;;;;;23.40;17.07;;;17.80;99.90;;;;;;5042270;28;20884;-69
2021/07/16 08:51:24;;;;;;;20.73;16.13;;;17.80;99.90;;;;;;5041096;28;20433;-69
2021/07/16 08:53:53;;;;;;;19.27;17.27;;;17.80;99.90;;;;;;5042658;28;20424;-69
2021/07/16 08:56:21;;;;;;;19.80;17.70;;;17.80;99.90;;;;;;5042026;28;20406;-69
2021/07/16 08:58:47;;;;;;;21.07;18.80;;;17.70;99.90;;;;;;5048441;28;20493;-69
2021/07/16 09:01:13;;;;;;;21.93;19.53;;;17.70;99.90;;;;;;5043033;28;20430;-69
2021/07/16 09:03:56;;;;;;;21.60;18.87;;;17.70;99.90;;;;;;5046886;28;20416;-69
2021/07/16 09:06:43;;;;;;;23.67;19.17;;;17.70;99.90;;;;;;5040129;28;20435;-69
2021/07/16 09:09:09;;;;;;;22.07;19.77;;;17.60;99.90;;;;;;5035109;28;20426;-69
2021/07/16 09:11:40;;;;;;;21.13;18.93;;;17.60;99.90;;;;;;5035898;28;20435;-69
2021/07/16 09:14:06;;;;;;;28.17;19.90;;;17.60;99.90;;;;;;5036142;28;20442;-69
2021/07/16 09:16:31;;;;;;;22.13;18.10;;;17.60;99.90;;;;;;5037040;28;20452;-69
2021/07/16 09:18:58;;;;;;;22.13;19.20;;;17.60;99.90;;;;;;5035908;28;20195;-69
2021/07/16 09:21:23;;;;;;;19.63;17.43;;;17.70;99.90;;;;;;5035919;28;20188;-69
2021/07/16 09:23:49;;;;;;;31.07;19.13;;;17.80;99.90;;;;;;5044917;28;20937;-69
2021/07/16 09:26:17;;;;;;;27.63;18.20;;;17.90;99.90;;;;;;5053063;28;20603;-69
2021/07/16 09:28:45;;;;;;;22.43;17.57;;;18.00;99.90;;;;;;5046713;28;20662;-69
2021/07/16 09:31:29;;;;;;;20.93;18.50;;;18.00;99.90;;;;;;5045946;28;20426;-69
2021/07/16 09:36:34;;;;;;;21.97;19.53;;;18.10;99.90;;;;;;5064648;28;21129;-69
2021/07/16 09:39:06;;;;;;;24.10;21.70;;;18.20;99.90;;;;;;5061476;28;20517;-69
2021/07/16 09:41:32;;;;;;;24.57;20.93;;;18.20;99.90;;;;;;5054570;28;20534;-69
2021/07/16 09:44:00;;;;;;;27.50;21.43;;;18.20;99.90;;;;;;5057551;28;20509;-69
2021/07/16 09:46:26;;;;;;;23.20;21.07;;;18.20;99.90;;;;;;5068971;28;20662;-69
2021/07/16 09:48:52;;;;;;;24.63;22.03;;;18.20;99.90;;;;;;5068643;28;20471;-69
2021/07/16 09:51:27;;;;;;;23.07;20.77;;;18.20;99.90;;;;;;5055353;28;20195;-69
2021/07/16 09:53:58;;;;;;;29.13;21.43;;;18.20;99.90;;;;;;5048588;28;20172;-69
2021/07/16 09:56:26;;;;;;;24.10;20.50;;;18.30;99.90;;;;;;5048328;28;21000;-69
2021/07/16 09:59:10;;;;;;;26.13;23.47;;;18.50;99.90;;;;;;5049727;28;20787;-69
2021/07/16 10:01:40;;;;;;;26.17;20.93;;;18.80;99.90;;;;;;5050401;28;20395;-69
2021/07/16 10:04:09;;;;;;;24.77;21.70;;;19.20;99.90;;;;;;5049731;28;20398;-69
2021/07/16 10:06:35;;;;;;;22.03;19.80;;;19.40;99.90;;;;;;5065520;28;20489;-69
2021/07/16 10:09:01;;;;;;;25.20;19.00;;;19.60;99.90;;;;;;5067690;28;20988;-69
2021/07/16 10:11:29;;;;;;;22.57;18.20;;;19.60;99.90;;;;;;5069635;28;20447;-69
2021/07/16 10:13:56;;;;;;;22.33;17.00;;;19.60;99.90;;;;;;5069305;28;20426;-69
2021/07/16 10:16:22;;;;;;;19.30;17.37;;;19.70;99.90;;;;;;5069793;28;20446;-69
2021/07/16 10:18:50;;;;;;;20.97;17.70;;;19.70;99.90;;;;;;5069756;28;20394;-69
2021/07/16 10:21:16;;;;;;;21.80;17.70;;;19.80;99.90;;;;;;5069171;28;20155;-69
2021/07/16 10:23:42;;;;;;;19.43;17.27;;;19.90;99.90;;;;;;5068467;28;20393;-69
2021/07/16 10:26:10;;;;;;;20.30;16.70;;;19.90;99.90;;;;;;5049442;28;20169;-69
2021/07/16 10:28:40;;;;;;;19.53;17.60;;;19.80;99.90;;;;;;5049140;28;20399;-69
2021/07/16 10:39:22;;;;;;;20.00;14.50;;;19.80;99.90;;;;;;5069834;28;21165;-69
2021/07/16 10:41:47;;;;;;;12.87;10.90;;;19.80;99.90;;;;;;5060674;28;20419;-69
2021/07/16 10:44:15;;;;;;;14.67;10.23;;;19.90;99.90;;;;;;5050016;28;20887;-69
2021/07/16 10:46:44;;;;;;;13.63;10.90;;;19.90;99.90;;;;;;5049744;28;20243;-69
2021/07/16 10:49:12;;;;;;;10.90;8.73;;;20.00;99.90;;;;;;5049714;28;20441;-69
2021/07/16 10:51:39;;;;;;;9.43;7.80;;;20.20;99.90;;;;;;5049861;28;20441;-69
2021/07/16 10:54:10;;;;;;;13.17;7.53;;;20.40;99.90;;;;;;5049680;28;20446;-69
2021/07/16 10:56:51;;;;;;;11.50;6.87;;;20.60;99.90;;;;;;5049533;28;20461;-69
2021/07/16 11:02:42;;;;;;;11.87;7.30;;;20.90;99.90;;;;;;5069907;28;20538;-68
2021/07/16 11:11:12;;;;;;;9.40;5.60;;;21.00;99.90;;;;;;5087274;27;21124;-69
2021/07/16 11:13:46;;;;;;;9.37;5.83;;;21.00;99.90;;;;;;5088612;28;20412;-69
2021/07/16 11:27:17;;;;;;;7.20;5.07;;;21.00;99.90;;;;;;5056773;28;20595;-68
2021/07/16 11:29:46;;;;;;;9.00;5.73;;;21.60;99.90;;;;;;5041968;28;20431;-68
2021/07/16 11:35:01;;;;;;;9.13;5.50;;;21.60;99.90;;;;;;5056470;28;20521;-68
2021/07/16 11:42:47;;;;;;;11.77;5.63;;;21.70;99.90;;;;;;5060245;28;20558;-69
2021/07/16 11:45:22;;;;;;;11.30;5.10;;;21.80;99.90;;;;;;5060815;28;20419;-69
2021/07/16 11:47:48;;;;;;;11.57;5.33;;;21.90;99.90;;;;;;5066134;28;20425;-69
2021/07/16 11:50:15;;;;;;;9.10;5.20;;;22.00;99.90;;;;;;5052943;28;20472;-69
2021/07/16 11:52:44;;;;;;;9.60;5.70;;;22.10;99.90;;;;;;5049801;28;20148;-69
2021/07/16 11:55:13;;;;;;;9.63;6.40;;;22.10;99.90;;;;;;5049947;28;20471;-69
2021/07/16 11:57:56;;;;;;;8.40;5.10;;;22.20;99.90;;;;;;5050209;28;20415;-69
2021/07/16 12:00:25;;;;;;;12.60;6.10;;;22.20;99.90;;;;;;5063876;28;20795;-69
2021/07/16 12:02:50;;;;;;;8.77;5.20;;;22.10;99.90;;;;;;5055149;28;20426;-69
2021/07/16 12:05:18;;;;;;;11.00;6.50;;;22.00;99.90;;;;;;5053654;28;20541;-69
2021/07/16 12:07:44;;;;;;;19.77;7.17;;;21.90;99.90;;;;;;5047731;28;20633;-69
2021/07/16 12:10:19;;;;;;;13.03;5.70;;;21.80;99.90;;;;;;5057087;28;20410;-69
2021/07/16 12:12:45;;;;;;;10.10;6.43;;;21.70;99.90;;;;;;5055398;28;20422;-69
2021/07/16 12:15:18;;;;;;;7.83;5.87;;;21.50;99.90;;;;;;5062905;28;20509;-69
2021/07/16 12:17:52;;;;;;;9.50;5.93;;;21.50;99.90;;;;;;5055074;28;20433;-69
2021/07/16 12:20:20;;;;;;;12.43;7.80;;;21.40;99.90;;;;;;5058866;28;20506;-69
2021/07/16 12:22:47;;;;;;;12.40;10.10;;;21.40;99.90;;;;;;5057731;28;20414;-69
2021/07/16 12:25:14;;;;;;;14.33;8.73;;;21.20;99.90;;;;;;5049470;28;20411;-69
2021/07/16 12:27:40;;;;;;;14.83;7.70;;;21.10;99.90;;;;;;5049554;28;20430;-69
2021/07/16 12:30:09;;;;;;;11.20;7.13;;;21.10;99.90;;;;;;5037090;28;20418;-69
2021/07/16 12:32:50;;;;;;;8.40;7.60;;;21.00;99.90;;;;;;5046305;28;20488;-69
2021/07/16 12:38:03;;;;;;;15.90;8.40;;;20.90;99.90;;;;;;5089973;27;20523;-69
2021/07/16 12:40:29;;;;;;;12.63;10.40;;;20.90;99.90;;;;;;5082357;28;20424;-68
2021/07/16 12:45:55;;;;;;;12.33;8.97;;;20.80;99.90;;;;;;5070298;28;20516;-69
2021/07/16 12:48:29;;;;;;;11.67;10.50;;;20.80;99.90;;;;;;5069954;28;20386;-69
2021/07/16 12:51:05;;;;;;;12.57;9.07;;;20.80;99.90;;;;;;5070064;28;20976;-69
2021/07/16 12:53:34;;;;;;;13.30;8.40;;;20.90;99.90;;;;;;5070102;28;20821;-68
2021/07/16 12:56:13;;;;;;;14.90;8.10;;;21.00;99.90;;;;;;5070206;28;20405;-69
2021/07/16 12:58:39;;;;;;;13.13;8.77;;;21.00;99.90;;;;;;5053770;28;20457;-69
2021/07/16 13:01:04;;;;;;;11.00;7.50;;;20.90;99.90;;;;;;5049548;28;20407;-69
2021/07/16 13:03:39;;;;;;;11.43;7.97;;;20.90;99.90;;;;;;5051866;28;20199;-68
2021/07/16 13:06:25;;;;;;;9.60;6.70;;;21.00;99.90;;;;;;5053391;28;20573;-69
2021/07/16 13:09:12;;;;;;;14.10;7.43;;;20.90;99.90;;;;;;5058101;28;20460;-69
2021/07/16 13:11:39;;;;;;;15.80;8.50;;;20.90;99.90;;;;;;5058001;28;20417;-69
2021/07/16 13:14:04;;;;;;;18.63;9.67;;;20.90;99.90;;;;;;5059269;28;20423;-69
2021/07/16 13:16:30;;;;;;;18.30;9.37;;;20.80;99.90;;;;;;5055947;28;20429;-69
2021/07/16 13:18:58;;;;;;;15.77;7.13;;;20.80;99.90;;;;;;5059334;28;20173;-69